KAFN/AFN METAR and TAF weather

Enter ICAO airport designator
Station Type Date Time Source
KAFN METAR 2018/04/20 08:52 UTC NOAA

KAFN 200852Z AUTO VRB05KT 10SM OVC024 00/M02 A2988 RMK AO2 SLP132 60000 T00001022 53008


Station Type Date Time Source
KAFN Decoded METAR 2018/04/20 08:52 UTC NOAA

JAFFREY MUNI-SILVER RANCH, NH, United States (KAFN) 42-48N 72-00W 313M
Apr 20, 2018 - 04:52 AM EDT / 2018.04.20 0852 UTC
Wind: Variable at 6 MPH (5 KT):0
Visibility: 10 mile(s):0
Sky conditions: overcast
Temperature: 32.0 F (0.0 C)
Windchill: 26 F (-3 C):1
Dew Point: 28.0 F (-2.2 C)
Relative Humidity: 85%
Pressure (altimeter): 29.88 in. Hg (1011 hPa)
Pressure tendency: 0.02 inches (0.8 hPa) higher than three hours ago
ob: KAFN 200852Z AUTO VRB05KT 10SM OVC024 00/M02 A2988 RMK AO2 SLP132 60000 T00001022 53008
cycle: 9

Station Type Date Time Source
KAFN TAF UTC NOAA

Error!


Example: see airport list